SWR464L LSZH-LYBE
Flight info
| Callsign | SWR464L |
|---|---|
| Flight time | 1h 22m |
| Altitude | 35000 |
| Route | DEGES Z2 UMVEG DCT DIMLO DCT BABIT DCT RIGMU |
| Aircraft | A21N/M-SDE2E3FGHIJ1RWXY/LB1 |
Departure
| Time | 2026-04-26 18:10 |
|---|---|
| Airport | Zürich Airport (LSZH) |
Arrival
| Time | 2026-04-26 19:33 |
|---|---|
| Airport | Belgrade Nikola Tesla Airport (LYBE) |
| Time | Latitude | Longitude | Altitude | Speed | Heading |
|---|---|---|---|---|---|
| 2026-04-26 17:37 | 47.45430 | 8.55804 | 1412 ft | 0 kts | 185° |
| 2026-04-26 18:03 | 47.45433 | 8.55804 | 1417 ft | 3 kts | 186° |
| 2026-04-26 18:04 | 47.45459 | 8.55811 | 1412 ft | 4 kts | 191° |
| 2026-04-26 18:04 | 47.45480 | 8.55809 | 1412 ft | 3 kts | 157° |
| 2026-04-26 18:04 | 47.45494 | 8.55798 | 1416 ft | 5 kts | 136° |
| 2026-04-26 18:05 | 47.45508 | 8.55757 | 1416 ft | 1 kts | 96° |
| 2026-04-26 18:07 | 47.45532 | 8.55836 | 1413 ft | 15 kts | 20° |
| 2026-04-26 18:07 | 47.45631 | 8.55879 | 1415 ft | 16 kts | 59° |
| 2026-04-26 18:07 | 47.45632 | 8.55992 | 1417 ft | 17 kts | 97° |
| 2026-04-26 18:08 | 47.45613 | 8.56242 | 1418 ft | 19 kts | 96° |
| 2026-04-26 18:08 | 47.45598 | 8.56441 | 1422 ft | 20 kts | 96° |
| 2026-04-26 18:08 | 47.45582 | 8.56656 | 1423 ft | 22 kts | 95° |
| 2026-04-26 18:08 | 47.45567 | 8.56884 | 1426 ft | 23 kts | 95° |
| 2026-04-26 18:09 | 47.45576 | 8.56992 | 1427 ft | 11 kts | 47° |
| 2026-04-26 18:09 | 47.45652 | 8.57006 | 1430 ft | 13 kts | 315° |
| 2026-04-26 18:09 | 47.45688 | 8.56648 | 1422 ft | 69 kts | 279° |
| 2026-04-26 18:09 | 47.45765 | 8.55584 | 1413 ft | 136 kts | 275° |
| 2026-04-26 18:10 | 47.45881 | 8.53966 | 1521 ft | 165 kts | 276° |
| 2026-04-26 18:10 | 47.45997 | 8.52277 | 1959 ft | 171 kts | 275° |
| 2026-04-26 18:10 | 47.46119 | 8.50478 | 2386 ft | 182 kts | 276° |
| 2026-04-26 18:10 | 47.46253 | 8.48555 | 2872 ft | 193 kts | 277° |
| 2026-04-26 18:11 | 47.46108 | 8.46577 | 3451 ft | 198 kts | 246° |
| 2026-04-26 18:11 | 47.45250 | 8.45018 | 4069 ft | 199 kts | 211° |
| 2026-04-26 18:11 | 47.43951 | 8.44458 | 4684 ft | 196 kts | 175° |
| 2026-04-26 18:11 | 47.42685 | 8.45088 | 5282 ft | 195 kts | 139° |
| 2026-04-26 18:12 | 47.41901 | 8.46663 | 5902 ft | 192 kts | 109° |
| 2026-04-26 18:12 | 47.41612 | 8.48611 | 6414 ft | 200 kts | 90° |
| 2026-04-26 18:12 | 47.41611 | 8.50730 | 6886 ft | 213 kts | 88° |
| 2026-04-26 18:12 | 47.41617 | 8.52988 | 7343 ft | 227 kts | 88° |
| 2026-04-26 18:13 | 47.41618 | 8.55415 | 7739 ft | 244 kts | 88° |
| 2026-04-26 18:13 | 47.41614 | 8.57955 | 8367 ft | 250 kts | 89° |
| 2026-04-26 18:13 | 47.41606 | 8.60552 | 9044 ft | 255 kts | 90° |
| 2026-04-26 18:13 | 47.41599 | 8.62294 | 9516 ft | 258 kts | 90° |
| 2026-04-26 18:14 | 47.41586 | 8.65885 | 10381 ft | 265 kts | 90° |
| 2026-04-26 18:14 | 47.41574 | 8.68615 | 11022 ft | 267 kts | 90° |
| 2026-04-26 18:14 | 47.41561 | 8.71375 | 11671 ft | 270 kts | 90° |
| 2026-04-26 18:14 | 47.41549 | 8.74163 | 12321 ft | 273 kts | 90° |
| 2026-04-26 18:15 | 47.41537 | 8.76989 | 12965 ft | 277 kts | 90° |
| 2026-04-26 18:15 | 47.41522 | 8.79855 | 13606 ft | 281 kts | 90° |
| 2026-04-26 18:15 | 47.41508 | 8.82750 | 14213 ft | 284 kts | 90° |
| 2026-04-26 18:15 | 47.41491 | 8.85683 | 14770 ft | 288 kts | 90° |
| 2026-04-26 18:16 | 47.41472 | 8.88650 | 15357 ft | 291 kts | 90° |
| 2026-04-26 18:16 | 47.41436 | 8.94683 | 16490 ft | 297 kts | 90° |
| 2026-04-26 18:16 | 47.41416 | 8.97740 | 17054 ft | 299 kts | 89° |
| 2026-04-26 18:17 | 47.41395 | 9.00827 | 17610 ft | 302 kts | 89° |
| 2026-04-26 18:17 | 47.41372 | 9.03946 | 18155 ft | 306 kts | 89° |
| 2026-04-26 18:17 | 47.41349 | 9.07136 | 18500 ft | 317 kts | 89° |
| 2026-04-26 18:17 | 47.41325 | 9.10411 | 18723 ft | 330 kts | 89° |
| 2026-04-26 18:18 | 47.41298 | 9.13881 | 18941 ft | 345 kts | 89° |
| 2026-04-26 18:18 | 47.41268 | 9.17499 | 19135 ft | 360 kts | 89° |
| 2026-04-26 18:18 | 47.41409 | 9.21251 | 19338 ft | 373 kts | 79° |
| 2026-04-26 18:18 | 47.41928 | 9.25066 | 19574 ft | 385 kts | 75° |
| 2026-04-26 18:19 | 47.42537 | 9.28978 | 19888 ft | 394 kts | 75° |
| 2026-04-26 18:19 | 47.43157 | 9.32946 | 20380 ft | 399 kts | 75° |
| 2026-04-26 18:19 | 47.43773 | 9.36956 | 20891 ft | 402 kts | 76° |
| 2026-04-26 18:19 | 47.43980 | 9.41085 | 21385 ft | 408 kts | 93° |
| 2026-04-26 18:20 | 47.43656 | 9.45264 | 21897 ft | 411 kts | 97° |
| 2026-04-26 18:20 | 47.43256 | 9.49455 | 22410 ft | 414 kts | 97° |
| 2026-04-26 18:20 | 47.42873 | 9.53684 | 22901 ft | 417 kts | 96° |
| 2026-04-26 18:20 | 47.42625 | 9.56568 | 23229 ft | 420 kts | 96° |
| 2026-04-26 18:21 | 47.42149 | 9.62256 | 23846 ft | 424 kts | 96° |
| 2026-04-26 18:21 | 47.41789 | 9.66584 | 24251 ft | 426 kts | 96° |
| 2026-04-26 18:21 | 47.41428 | 9.70945 | 24661 ft | 429 kts | 96° |
| 2026-04-26 18:21 | 47.41067 | 9.75322 | 25074 ft | 431 kts | 96° |
| 2026-04-26 18:22 | 47.40702 | 9.79727 | 25489 ft | 434 kts | 96° |
| 2026-04-26 18:22 | 47.40330 | 9.84152 | 25895 ft | 436 kts | 97° |
| 2026-04-26 18:22 | 47.39954 | 9.88611 | 26288 ft | 439 kts | 97° |
| 2026-04-26 18:22 | 47.39573 | 9.93087 | 26695 ft | 441 kts | 97° |
| 2026-04-26 18:23 | 47.39190 | 9.97587 | 27083 ft | 443 kts | 97° |
| 2026-04-26 18:23 | 47.38805 | 10.02101 | 27469 ft | 445 kts | 97° |
| 2026-04-26 18:23 | 47.38417 | 10.06648 | 27828 ft | 447 kts | 97° |
| 2026-04-26 18:23 | 47.38023 | 10.11216 | 28179 ft | 450 kts | 97° |
| 2026-04-26 18:24 | 47.37626 | 10.15805 | 28520 ft | 453 kts | 97° |
| 2026-04-26 18:24 | 47.37223 | 10.20421 | 28859 ft | 455 kts | 98° |
| 2026-04-26 18:24 | 47.36814 | 10.25059 | 29219 ft | 457 kts | 97° |
| 2026-04-26 18:24 | 47.36405 | 10.29720 | 29564 ft | 459 kts | 98° |
| 2026-04-26 18:25 | 47.35994 | 10.34400 | 29875 ft | 461 kts | 98° |
| 2026-04-26 18:25 | 47.35578 | 10.39096 | 30190 ft | 463 kts | 98° |
| 2026-04-26 18:25 | 47.35157 | 10.43818 | 30469 ft | 465 kts | 98° |
| 2026-04-26 18:25 | 47.34733 | 10.48557 | 30719 ft | 467 kts | 98° |
| 2026-04-26 18:26 | 47.34304 | 10.53315 | 30963 ft | 469 kts | 98° |
| 2026-04-26 18:26 | 47.33870 | 10.58087 | 31225 ft | 471 kts | 98° |
| 2026-04-26 18:26 | 47.33435 | 10.62880 | 31478 ft | 472 kts | 98° |
| 2026-04-26 18:26 | 47.32996 | 10.67688 | 31722 ft | 473 kts | 98° |
| 2026-04-26 18:27 | 47.32554 | 10.72495 | 31973 ft | 474 kts | 98° |
| 2026-04-26 18:27 | 47.32110 | 10.77313 | 32245 ft | 474 kts | 98° |
| 2026-04-26 18:27 | 47.31666 | 10.82124 | 32521 ft | 473 kts | 98° |
| 2026-04-26 18:27 | 47.31218 | 10.86923 | 32761 ft | 473 kts | 98° |
| 2026-04-26 18:28 | 47.30773 | 10.91661 | 33023 ft | 473 kts | 98° |
| 2026-04-26 18:28 | 47.30322 | 10.96462 | 33286 ft | 473 kts | 98° |
| 2026-04-26 18:28 | 47.29870 | 11.01259 | 33539 ft | 472 kts | 98° |
| 2026-04-26 18:28 | 47.29417 | 11.06047 | 33784 ft | 472 kts | 98° |
| 2026-04-26 18:29 | 47.28955 | 11.10897 | 34025 ft | 471 kts | 98° |
| 2026-04-26 18:29 | 47.28517 | 11.15484 | 34235 ft | 471 kts | 98° |
| 2026-04-26 18:29 | 47.28083 | 11.19987 | 34404 ft | 471 kts | 98° |
| 2026-04-26 18:29 | 47.27613 | 11.24848 | 34583 ft | 470 kts | 98° |
| 2026-04-26 18:30 | 47.27156 | 11.29558 | 34754 ft | 471 kts | 98° |
| 2026-04-26 18:30 | 47.26690 | 11.34328 | 34904 ft | 471 kts | 98° |
| 2026-04-26 18:30 | 47.26222 | 11.39108 | 35076 ft | 471 kts | 98° |
| 2026-04-26 18:30 | 47.25753 | 11.43882 | 35199 ft | 472 kts | 98° |
| 2026-04-26 18:31 | 47.24800 | 11.53535 | 35208 ft | 481 kts | 98° |
| 2026-04-26 18:31 | 47.23823 | 11.63343 | 35190 ft | 487 kts | 98° |
| 2026-04-26 18:32 | 47.22826 | 11.73245 | 35217 ft | 490 kts | 98° |
| 2026-04-26 18:32 | 47.21819 | 11.83165 | 35207 ft | 490 kts | 99° |
| 2026-04-26 18:33 | 47.20809 | 11.93094 | 35191 ft | 491 kts | 98° |
| 2026-04-26 18:33 | 47.19856 | 12.03038 | 35205 ft | 491 kts | 98° |
| 2026-04-26 18:34 | 47.18893 | 12.12970 | 35210 ft | 490 kts | 98° |
| 2026-04-26 18:34 | 47.17914 | 12.22892 | 35208 ft | 491 kts | 98° |
| 2026-04-26 18:35 | 47.16928 | 12.32818 | 35209 ft | 491 kts | 98° |
| 2026-04-26 18:35 | 47.15935 | 12.42732 | 35209 ft | 490 kts | 98° |
| 2026-04-26 18:36 | 47.14929 | 12.52651 | 35184 ft | 491 kts | 99° |
| 2026-04-26 18:36 | 47.13916 | 12.62584 | 35178 ft | 492 kts | 99° |
| 2026-04-26 18:37 | 47.12893 | 12.72508 | 35179 ft | 491 kts | 99° |
| 2026-04-26 18:37 | 47.11864 | 12.82421 | 35177 ft | 491 kts | 99° |
| 2026-04-26 18:38 | 47.10824 | 12.92336 | 35169 ft | 491 kts | 99° |
| 2026-04-26 18:38 | 47.09776 | 13.02217 | 35184 ft | 489 kts | 99° |
| 2026-04-26 18:39 | 47.08732 | 13.12026 | 35176 ft | 490 kts | 99° |
| 2026-04-26 18:39 | 47.07669 | 13.21904 | 35179 ft | 490 kts | 99° |
| 2026-04-26 18:40 | 47.06616 | 13.31748 | 35169 ft | 487 kts | 99° |
| 2026-04-26 18:40 | 47.05545 | 13.41561 | 35185 ft | 487 kts | 99° |
| 2026-04-26 18:41 | 47.04464 | 13.51366 | 35173 ft | 487 kts | 99° |
| 2026-04-26 18:41 | 47.03371 | 13.61172 | 35176 ft | 487 kts | 99° |
| 2026-04-26 18:42 | 47.02277 | 13.70969 | 35164 ft | 487 kts | 99° |
| 2026-04-26 18:42 | 47.01170 | 13.80768 | 35153 ft | 487 kts | 99° |
| 2026-04-26 18:43 | 47.00055 | 13.90551 | 35141 ft | 486 kts | 99° |
| 2026-04-26 18:43 | 46.98931 | 14.00331 | 35145 ft | 487 kts | 99° |
| 2026-04-26 18:44 | 46.97795 | 14.10107 | 35144 ft | 487 kts | 99° |
| 2026-04-26 18:44 | 46.96650 | 14.19878 | 35142 ft | 487 kts | 99° |
| 2026-04-26 18:45 | 46.95499 | 14.29650 | 35144 ft | 487 kts | 100° |
| 2026-04-26 18:45 | 46.94345 | 14.39417 | 35149 ft | 487 kts | 100° |
| 2026-04-26 18:46 | 46.93182 | 14.49188 | 35150 ft | 487 kts | 99° |
| 2026-04-26 18:46 | 46.92009 | 14.58954 | 35161 ft | 488 kts | 99° |
| 2026-04-26 18:47 | 46.90827 | 14.68725 | 35161 ft | 488 kts | 100° |
| 2026-04-26 18:47 | 46.89637 | 14.78489 | 35184 ft | 488 kts | 100° |
| 2026-04-26 18:48 | 46.88435 | 14.88242 | 35205 ft | 488 kts | 99° |
| 2026-04-26 18:48 | 46.87224 | 14.98005 | 35210 ft | 489 kts | 99° |
| 2026-04-26 18:49 | 46.86212 | 15.06124 | 35237 ft | 489 kts | 100° |
| 2026-04-26 18:49 | 46.84986 | 15.15898 | 35243 ft | 489 kts | 100° |
| 2026-04-26 18:50 | 46.83759 | 15.25663 | 35254 ft | 489 kts | 99° |
| 2026-04-26 18:50 | 46.82517 | 15.35448 | 35252 ft | 491 kts | 100° |
| 2026-04-26 18:51 | 46.81264 | 15.45238 | 35249 ft | 491 kts | 100° |
| 2026-04-26 18:51 | 46.80003 | 15.55029 | 35242 ft | 491 kts | 100° |
| 2026-04-26 18:52 | 46.78727 | 15.64813 | 35259 ft | 491 kts | 100° |
| 2026-04-26 18:52 | 46.77443 | 15.74603 | 35246 ft | 491 kts | 100° |
| 2026-04-26 18:53 | 46.76154 | 15.84375 | 35250 ft | 491 kts | 100° |
| 2026-04-26 18:53 | 46.74859 | 15.94152 | 35248 ft | 491 kts | 100° |
| 2026-04-26 18:54 | 46.73555 | 16.03921 | 35242 ft | 491 kts | 100° |
| 2026-04-26 18:54 | 46.72239 | 16.13685 | 35247 ft | 491 kts | 100° |
| 2026-04-26 18:55 | 46.70914 | 16.23449 | 35252 ft | 491 kts | 101° |
| 2026-04-26 18:55 | 46.69586 | 16.33203 | 35251 ft | 491 kts | 101° |
| 2026-04-26 18:56 | 46.68110 | 16.42904 | 35230 ft | 491 kts | 109° |
| 2026-04-26 18:56 | 46.65562 | 16.52081 | 35253 ft | 488 kts | 113° |
| 2026-04-26 18:57 | 46.63372 | 16.59649 | 35251 ft | 488 kts | 113° |
| 2026-04-26 18:57 | 46.60302 | 16.70296 | 35248 ft | 488 kts | 113° |
| 2026-04-26 18:58 | 46.57674 | 16.79399 | 35260 ft | 488 kts | 113° |
| 2026-04-26 18:58 | 46.55035 | 16.88486 | 35257 ft | 488 kts | 114° |
| 2026-04-26 18:59 | 46.52398 | 16.97559 | 35243 ft | 486 kts | 114° |
| 2026-04-26 18:59 | 46.49762 | 17.06589 | 35253 ft | 485 kts | 114° |
| 2026-04-26 19:00 | 46.47117 | 17.15602 | 35257 ft | 486 kts | 114° |
| 2026-04-26 19:00 | 46.44460 | 17.24636 | 35254 ft | 487 kts | 114° |
| 2026-04-26 19:01 | 46.41791 | 17.33674 | 35245 ft | 487 kts | 114° |
| 2026-04-26 19:01 | 46.39114 | 17.42693 | 35241 ft | 487 kts | 114° |
| 2026-04-26 19:02 | 46.36436 | 17.51703 | 35245 ft | 488 kts | 114° |
| 2026-04-26 19:02 | 46.34201 | 17.59213 | 35236 ft | 489 kts | 114° |
| 2026-04-26 19:03 | 46.31056 | 17.69698 | 35231 ft | 488 kts | 114° |
| 2026-04-26 19:03 | 46.29702 | 17.74200 | 34925 ft | 488 kts | 114° |
| 2026-04-26 19:03 | 46.28348 | 17.78695 | 34645 ft | 486 kts | 114° |
| 2026-04-26 19:04 | 46.27001 | 17.83166 | 34396 ft | 484 kts | 114° |
| 2026-04-26 19:04 | 46.25657 | 17.87614 | 34086 ft | 482 kts | 114° |
| 2026-04-26 19:04 | 46.24316 | 17.92042 | 33556 ft | 479 kts | 114° |
| 2026-04-26 19:04 | 46.22986 | 17.96427 | 32992 ft | 475 kts | 114° |
| 2026-04-26 19:05 | 46.20285 | 18.05313 | 32267 ft | 490 kts | 114° |
| 2026-04-26 19:05 | 46.18914 | 18.09811 | 31995 ft | 489 kts | 114° |
| 2026-04-26 19:05 | 46.17546 | 18.14296 | 31735 ft | 488 kts | 114° |
| 2026-04-26 19:06 | 46.16178 | 18.18777 | 31500 ft | 492 kts | 114° |
| 2026-04-26 19:06 | 46.14785 | 18.23321 | 31257 ft | 497 kts | 114° |
| 2026-04-26 19:06 | 46.13385 | 18.27882 | 31007 ft | 497 kts | 114° |
| 2026-04-26 19:06 | 46.11986 | 18.32430 | 30771 ft | 496 kts | 114° |
| 2026-04-26 19:07 | 46.10588 | 18.36966 | 30521 ft | 494 kts | 115° |
| 2026-04-26 19:07 | 46.09194 | 18.41472 | 30267 ft | 492 kts | 114° |
| 2026-04-26 19:07 | 46.07810 | 18.45953 | 29963 ft | 487 kts | 114° |
| 2026-04-26 19:07 | 46.06437 | 18.50397 | 29678 ft | 485 kts | 114° |
| 2026-04-26 19:08 | 46.05064 | 18.54828 | 29391 ft | 483 kts | 114° |
| 2026-04-26 19:08 | 46.03693 | 18.59236 | 29161 ft | 482 kts | 114° |
| 2026-04-26 19:08 | 46.02314 | 18.63667 | 28913 ft | 493 kts | 114° |
| 2026-04-26 19:08 | 46.00899 | 18.68203 | 28655 ft | 499 kts | 114° |
| 2026-04-26 19:09 | 45.99478 | 18.72749 | 28384 ft | 498 kts | 114° |
| 2026-04-26 19:09 | 45.98058 | 18.77280 | 28117 ft | 496 kts | 114° |
| 2026-04-26 19:09 | 45.96645 | 18.81793 | 27845 ft | 494 kts | 114° |
| 2026-04-26 19:09 | 45.95236 | 18.86286 | 27575 ft | 492 kts | 114° |
| 2026-04-26 19:10 | 45.93788 | 18.90729 | 27313 ft | 490 kts | 118° |
| 2026-04-26 19:10 | 45.91798 | 18.94672 | 27046 ft | 488 kts | 134° |
| 2026-04-26 19:10 | 45.89172 | 18.97725 | 26785 ft | 487 kts | 150° |
| 2026-04-26 19:10 | 45.86178 | 19.00015 | 26546 ft | 488 kts | 155° |
| 2026-04-26 19:11 | 45.83177 | 19.02278 | 26303 ft | 487 kts | 152° |
| 2026-04-26 19:11 | 45.80249 | 19.04714 | 26050 ft | 486 kts | 150° |
| 2026-04-26 19:11 | 45.77378 | 19.07258 | 25696 ft | 484 kts | 149° |
| 2026-04-26 19:11 | 45.74546 | 19.09828 | 25196 ft | 482 kts | 148° |
| 2026-04-26 19:12 | 45.71714 | 19.12408 | 24633 ft | 482 kts | 148° |
| 2026-04-26 19:12 | 45.68892 | 19.14972 | 24050 ft | 480 kts | 148° |
| 2026-04-26 19:12 | 45.66079 | 19.17526 | 23418 ft | 477 kts | 148° |
| 2026-04-26 19:12 | 45.63286 | 19.20050 | 22791 ft | 473 kts | 148° |
| 2026-04-26 19:13 | 45.60513 | 19.22549 | 22168 ft | 470 kts | 148° |
| 2026-04-26 19:13 | 45.57761 | 19.25028 | 21585 ft | 466 kts | 148° |
| 2026-04-26 19:13 | 45.55030 | 19.27489 | 21024 ft | 463 kts | 148° |
| 2026-04-26 19:13 | 45.52319 | 19.29929 | 20453 ft | 459 kts | 148° |
| 2026-04-26 19:14 | 45.49639 | 19.32336 | 19885 ft | 453 kts | 148° |
| 2026-04-26 19:14 | 45.46982 | 19.34723 | 19372 ft | 450 kts | 147° |
| 2026-04-26 19:14 | 45.44342 | 19.37090 | 18875 ft | 448 kts | 147° |
| 2026-04-26 19:14 | 45.42607 | 19.38671 | 18556 ft | 446 kts | 145° |
| 2026-04-26 19:15 | 45.39700 | 19.42783 | 18211 ft | 441 kts | 122° |
| 2026-04-26 19:15 | 45.38161 | 19.46554 | 18194 ft | 440 kts | 117° |
| 2026-04-26 19:15 | 45.36688 | 19.50373 | 18202 ft | 443 kts | 117° |
| 2026-04-26 19:15 | 45.35171 | 19.54211 | 18200 ft | 447 kts | 118° |
| 2026-04-26 19:16 | 45.33621 | 19.58038 | 18039 ft | 446 kts | 118° |
| 2026-04-26 19:16 | 45.32060 | 19.61842 | 17808 ft | 445 kts | 118° |
| 2026-04-26 19:16 | 45.30498 | 19.65633 | 17553 ft | 444 kts | 118° |
| 2026-04-26 19:16 | 45.28939 | 19.69408 | 17314 ft | 443 kts | 118° |
| 2026-04-26 19:17 | 45.27379 | 19.73180 | 17057 ft | 442 kts | 118° |
| 2026-04-26 19:17 | 45.25825 | 19.76938 | 16801 ft | 441 kts | 118° |
| 2026-04-26 19:17 | 45.24272 | 19.80684 | 16570 ft | 440 kts | 118° |
| 2026-04-26 19:17 | 45.22722 | 19.84418 | 16345 ft | 439 kts | 118° |
| 2026-04-26 19:18 | 45.21176 | 19.88140 | 16134 ft | 437 kts | 119° |
| 2026-04-26 19:18 | 45.19637 | 19.91838 | 15916 ft | 435 kts | 119° |
| 2026-04-26 19:18 | 45.18121 | 19.95476 | 15703 ft | 420 kts | 119° |
| 2026-04-26 19:18 | 45.16664 | 19.98969 | 15470 ft | 404 kts | 119° |
| 2026-04-26 19:19 | 45.15260 | 20.02330 | 15266 ft | 389 kts | 118° |
| 2026-04-26 19:19 | 45.13905 | 20.05570 | 15060 ft | 375 kts | 118° |
| 2026-04-26 19:19 | 45.12597 | 20.08697 | 14837 ft | 363 kts | 118° |
| 2026-04-26 19:19 | 45.11318 | 20.11748 | 14493 ft | 358 kts | 118° |
| 2026-04-26 19:20 | 45.10054 | 20.14760 | 14177 ft | 352 kts | 118° |
| 2026-04-26 19:20 | 45.09234 | 20.16712 | 14041 ft | 344 kts | 118° |
| 2026-04-26 19:20 | 45.07631 | 20.20523 | 13708 ft | 331 kts | 118° |
| 2026-04-26 19:20 | 45.06464 | 20.23301 | 13268 ft | 327 kts | 118° |
| 2026-04-26 19:21 | 45.05304 | 20.26059 | 12791 ft | 325 kts | 118° |
| 2026-04-26 19:21 | 45.04150 | 20.28799 | 12320 ft | 324 kts | 118° |
| 2026-04-26 19:21 | 45.03001 | 20.31526 | 11909 ft | 322 kts | 119° |
| 2026-04-26 19:21 | 45.01854 | 20.34240 | 11526 ft | 321 kts | 119° |
| 2026-04-26 19:22 | 45.00713 | 20.36940 | 11150 ft | 319 kts | 119° |
| 2026-04-26 19:22 | 44.99578 | 20.39621 | 10756 ft | 317 kts | 119° |
| 2026-04-26 19:22 | 44.98450 | 20.42286 | 10347 ft | 315 kts | 119° |
| 2026-04-26 19:22 | 44.97327 | 20.44934 | 9920 ft | 313 kts | 119° |
| 2026-04-26 19:23 | 44.96210 | 20.47565 | 9459 ft | 311 kts | 119° |
| 2026-04-26 19:23 | 44.95100 | 20.50180 | 9053 ft | 309 kts | 119° |
| 2026-04-26 19:23 | 44.93998 | 20.52768 | 8647 ft | 306 kts | 119° |
| 2026-04-26 19:23 | 44.92902 | 20.55341 | 8259 ft | 305 kts | 119° |
| 2026-04-26 19:24 | 44.91816 | 20.57894 | 7895 ft | 303 kts | 119° |
| 2026-04-26 19:24 | 44.90747 | 20.60400 | 7532 ft | 301 kts | 118° |
| 2026-04-26 19:24 | 44.87901 | 20.64468 | 6812 ft | 291 kts | 163° |
| 2026-04-26 19:25 | 44.85975 | 20.65065 | 6526 ft | 278 kts | 174° |
| 2026-04-26 19:25 | 44.85333 | 20.65194 | 6419 ft | 274 kts | 174° |
| 2026-04-26 19:25 | 44.82250 | 20.65789 | 5822 ft | 260 kts | 173° |
| 2026-04-26 19:25 | 44.80489 | 20.66154 | 5525 ft | 253 kts | 173° |
| 2026-04-26 19:26 | 44.78755 | 20.66504 | 5242 ft | 250 kts | 176° |
| 2026-04-26 19:26 | 44.77075 | 20.66270 | 4956 ft | 245 kts | 203° |
| 2026-04-26 19:26 | 44.75597 | 20.65171 | 4683 ft | 236 kts | 216° |
| 2026-04-26 19:26 | 44.74242 | 20.63919 | 4380 ft | 231 kts | 216° |
| 2026-04-26 19:27 | 44.72912 | 20.62693 | 4071 ft | 226 kts | 216° |
| 2026-04-26 19:27 | 44.71603 | 20.61510 | 3972 ft | 224 kts | 216° |
| 2026-04-26 19:27 | 44.70314 | 20.60297 | 4011 ft | 221 kts | 223° |
| 2026-04-26 19:27 | 44.69552 | 20.58532 | 4020 ft | 210 kts | 263° |
| 2026-04-26 19:28 | 44.69768 | 20.56613 | 4015 ft | 190 kts | 303° |
| 2026-04-26 19:28 | 44.70540 | 20.55228 | 4000 ft | 176 kts | 315° |
| 2026-04-26 19:28 | 44.71347 | 20.53933 | 3878 ft | 176 kts | 313° |
| 2026-04-26 19:28 | 44.72096 | 20.52580 | 3681 ft | 175 kts | 310° |
| 2026-04-26 19:29 | 44.72797 | 20.51169 | 3464 ft | 177 kts | 308° |
| 2026-04-26 19:29 | 44.73467 | 20.49719 | 3231 ft | 177 kts | 307° |
| 2026-04-26 19:29 | 44.74122 | 20.48261 | 2976 ft | 176 kts | 306° |
| 2026-04-26 19:29 | 44.74771 | 20.46808 | 2759 ft | 175 kts | 306° |
| 2026-04-26 19:30 | 44.75418 | 20.45356 | 2514 ft | 175 kts | 307° |
| 2026-04-26 19:30 | 44.76060 | 20.43913 | 2274 ft | 173 kts | 307° |
| 2026-04-26 19:30 | 44.76698 | 20.42482 | 2050 ft | 172 kts | 307° |
| 2026-04-26 19:30 | 44.76913 | 20.42000 | 1959 ft | 172 kts | 307° |
| 2026-04-26 19:31 | 44.77967 | 20.39632 | 1574 ft | 171 kts | 306° |
| 2026-04-26 19:31 | 44.78600 | 20.38210 | 1346 ft | 172 kts | 306° |
| 2026-04-26 19:31 | 44.79236 | 20.36781 | 1105 ft | 173 kts | 305° |
| 2026-04-26 19:31 | 44.79848 | 20.35396 | 936 ft | 153 kts | 303° |
| 2026-04-26 19:32 | 44.80361 | 20.34223 | 655 ft | 135 kts | 304° |
| 2026-04-26 19:32 | 44.80860 | 20.33109 | 479 ft | 134 kts | 305° |
| 2026-04-26 19:32 | 44.81191 | 20.32370 | 375 ft | 135 kts | 304° |
| 2026-04-26 19:32 | 44.81662 | 20.31322 | 310 ft | 110 kts | 304° |
| 2026-04-26 19:33 | 44.81998 | 20.30561 | 311 ft | 78 kts | 301° |
| 2026-04-26 19:33 | 44.82178 | 20.30132 | 311 ft | 22 kts | 276° |
| 2026-04-26 19:33 | 44.82169 | 20.29908 | 312 ft | 21 kts | 271° |
| 2026-04-26 19:33 | 44.82169 | 20.29894 | 312 ft | 0 kts | 271° |
| 2026-04-26 19:34 | 44.82169 | 20.29892 | 312 ft | 2 kts | 271° |
| 2026-04-26 19:34 | 44.82170 | 20.29857 | 313 ft | 6 kts | 271° |
| 2026-04-26 19:35 | 44.82170 | 20.29772 | 313 ft | 13 kts | 266° |
| 2026-04-26 19:35 | 44.82118 | 20.29658 | 313 ft | 10 kts | 228° |
| 2026-04-26 19:35 | 44.82099 | 20.29530 | 312 ft | 15 kts | 225° |
| 2026-04-26 19:35 | 44.82024 | 20.29462 | 312 ft | 8 kts | 211° |
| 2026-04-26 19:36 | 44.81996 | 20.29395 | 312 ft | 10 kts | 280° |
| 2026-04-26 19:36 | 44.82006 | 20.29367 | 312 ft | 3 kts | 304° |
| 2026-04-26 19:36 | 44.82012 | 20.29355 | 312 ft | 0 kts | 303° |